Mamiasy — SX0417 — position and weather

sailwx.info

Track history (hours):
 
Tides and Currents Weather Stations Pressure Air Temp Water Temp Dewpoint Dewpoint Depression Visibility Wind Speed Wind Dir Waves Ship Positions

Mamiasy

Last reported at 2017-Sep-18 06:36 UTC. Time now 2017-Sep-19 19:13 UTC.
Position N 36°28' E 023°01'.

Length 13 m; draft 2.2 m.

Type: Sailing vessel. MMSI: 237435300.

Date/timePositionNaut miles runAvg speedWind from/ knotsBaromVisibWave heightAir tempDewpointWater temp
2017-Sep-18 06:36N 36°28' E 023°01'17 0.8
2017-Sep-17 08:11N 36°26' E 022°39'6 4.1
2017-Sep-17 06:40N 36°26' E 022°31'2 0.1
2017-Sep-16 14:19N 36°26' E 022°29'0 0.0
2017-Sep-16 13:23N 36°26' E 022°29'11 3.2
2017-Sep-16 10:04N 36°30' E 022°17'1 7.3
2017-Sep-16 09:55N 36°30' E 022°16'5 6.9
2017-Sep-16 09:16N 36°33' E 022°11'4 6.7
2017-Sep-16 08:41N 36°35' E 022°07'3 6.5
2017-Sep-16 08:10N 36°37' E 022°04'3 6.6
2017-Sep-16 07:42N 36°39' E 022°00'1 6.8
2017-Sep-16 07:30N 36°40' E 021°59'12 0.9
2017-Sep-15 18:53N 36°48' E 021°49'0 0.0
2017-Sep-15 14:03N 36°48' E 021°49'0 0.1
2017-Sep-15 13:59N 36°48' E 021°49'0 0.0
2017-Sep-15 13:29N 36°48' E 021°49'0 0.0
2017-Sep-15 09:18N 36°48' E 021°49'1 1.9
2017-Sep-15 08:50N 36°48' E 021°48'2 3.6
2017-Sep-15 08:22N 36°47' E 021°46'3 4.4
2017-Sep-15 07:39N 36°48' E 021°43'1 4.0
2017-Sep-15 07:21N 36°49' E 021°42'6 0.5
2017-Sep-14 20:45N 36°55' E 021°42'0 0.1
2017-Sep-14 19:18N 36°55' E 021°42'  
2017-Sep-12 12:24N 37°15' E 021°40'11 4.3
2017-Sep-12 09:54N 37°24' E 021°33'5 7.1
2017-Sep-12 09:12N 37°29' E 021°29'  
2017-Sep-08 10:26N 37°40' E 021°12'13 4.5
2017-Sep-08 07:36N 37°46' E 020°57'  
Track history (hours):
 
Tides and Currents Weather Stations Pressure Air Temp Water Temp Dewpoint Dewpoint Depression Visibility Wind Speed Wind Dir Waves Ship Positions

Mamiasy

Last reported at 2017-Sep-18 06:36 UTC. Time now 2017-Sep-19 19:13 UTC.
Position N 36°28' E 023°01'.

Length 13 m; draft 2.2 m.

Type: Sailing vessel. MMSI: 237435300.

Date/timePositionNaut miles runAvg speedWind from/ knotsBaromVisibWave heightAir tempDewpointWater temp
2017-Sep-18 06:36N 36°28' E 023°01'17 0.8
2017-Sep-17 08:11N 36°26' E 022°39'6 4.1
2017-Sep-17 06:40N 36°26' E 022°31'2 0.1
2017-Sep-16 14:19N 36°26' E 022°29'0 0.0
2017-Sep-16 13:23N 36°26' E 022°29'11 3.2
2017-Sep-16 10:04N 36°30' E 022°17'1 7.3
2017-Sep-16 09:55N 36°30' E 022°16'5 6.9
2017-Sep-16 09:16N 36°33' E 022°11'4 6.7
2017-Sep-16 08:41N 36°35' E 022°07'3 6.5
2017-Sep-16 08:10N 36°37' E 022°04'3 6.6
2017-Sep-16 07:42N 36°39' E 022°00'1 6.8
2017-Sep-16 07:30N 36°40' E 021°59'12 0.9
2017-Sep-15 18:53N 36°48' E 021°49'0 0.0
2017-Sep-15 14:03N 36°48' E 021°49'0 0.1
2017-Sep-15 13:59N 36°48' E 021°49'0 0.0
2017-Sep-15 13:29N 36°48' E 021°49'0 0.0
2017-Sep-15 09:18N 36°48' E 021°49'1 1.9
2017-Sep-15 08:50N 36°48' E 021°48'2 3.6
2017-Sep-15 08:22N 36°47' E 021°46'3 4.4
2017-Sep-15 07:39N 36°48' E 021°43'1 4.0
2017-Sep-15 07:21N 36°49' E 021°42'6 0.5
2017-Sep-14 20:45N 36°55' E 021°42'0 0.1
2017-Sep-14 19:18N 36°55' E 021°42'  
2017-Sep-12 12:24N 37°15' E 021°40'11 4.3
2017-Sep-12 09:54N 37°24' E 021°33'5 7.1
2017-Sep-12 09:12N 37°29' E 021°29'  
2017-Sep-08 10:26N 37°40' E 021°12'13 4.5
2017-Sep-08 07:36N 37°46' E 020°57'  

Dump ship's entire track history